Oski — WYD3004 — position and weather

sailwx.info

Track history (hours):
 
Tides and Currents Weather Stations Pressure Air Temp Water Temp Dewpoint Dewpoint Depression Visibility Wind Speed Wind Dir Waves Ship Positions

Oski

Owner: BLUE & GOLD FLEET, SAN FRANCISCO, CA. More information available from US FCC via Universal Licensing System and Coast Guard Vessel Documentation Center.

Last reported at 2017-Mar-07 21:09 UTC. Time now 2017-Mar-27 04:39 UTC.
Position N 38°06' W 122°16'.
Warning: this ship's position is 19 days out of date.

Length 24 m; draft 2 m.

Type: Passenger vessel. MMSI: 366985320.

Date/timePositionNaut miles runAvg speedWind from/ knotsBaromVisibWave heightAir tempDewpointWater temp
2017-Mar-07 21:09N 38°06' W 122°16'4 5.9
2017-Mar-07 20:33N 38°03' W 122°18'8 8.1
2017-Mar-07 19:34N 37°57' W 122°26'9 8.8
2017-Mar-07 18:34N 37°49' W 122°25'0 0.1
2017-Mar-07 17:34N 37°49' W 122°25'  
2017-Mar-04 22:06N 37°49' W 122°25'0 0.0
2017-Mar-04 21:33N 37°49' W 122°25'0 0.0
2017-Mar-04 07:34N 37°49' W 122°25'2 1.8
2017-Mar-04 06:34N 37°50' W 122°26'2 1.8
2017-Mar-04 05:34N 37°49' W 122°25'3 3.2
2017-Mar-04 04:34N 37°51' W 122°27'3 3.1
2017-Mar-04 03:33N 37°49' W 122°25'5 5.5
2017-Mar-04 02:34N 37°47' W 122°18'2 1.8
2017-Mar-04 01:34N 37°48' W 122°20'2 1.7
2017-Mar-04 00:34N 37°48' W 122°22'  
Track history (hours):
 
Tides and Currents Weather Stations Pressure Air Temp Water Temp Dewpoint Dewpoint Depression Visibility Wind Speed Wind Dir Waves Ship Positions

Oski

Owner: BLUE & GOLD FLEET, SAN FRANCISCO, CA. More information available from US FCC via Universal Licensing System and Coast Guard Vessel Documentation Center.

Last reported at 2017-Mar-07 21:09 UTC. Time now 2017-Mar-27 04:39 UTC.
Position N 38°06' W 122°16'.
Warning: this ship's position is 19 days out of date.

Length 24 m; draft 2 m.

Type: Passenger vessel. MMSI: 366985320.

Date/timePositionNaut miles runAvg speedWind from/ knotsBaromVisibWave heightAir tempDewpointWater temp
2017-Mar-07 21:09N 38°06' W 122°16'4 5.9
2017-Mar-07 20:33N 38°03' W 122°18'8 8.1
2017-Mar-07 19:34N 37°57' W 122°26'9 8.8
2017-Mar-07 18:34N 37°49' W 122°25'0 0.1
2017-Mar-07 17:34N 37°49' W 122°25'  
2017-Mar-04 22:06N 37°49' W 122°25'0 0.0
2017-Mar-04 21:33N 37°49' W 122°25'0 0.0
2017-Mar-04 07:34N 37°49' W 122°25'2 1.8
2017-Mar-04 06:34N 37°50' W 122°26'2 1.8
2017-Mar-04 05:34N 37°49' W 122°25'3 3.2
2017-Mar-04 04:34N 37°51' W 122°27'3 3.1
2017-Mar-04 03:33N 37°49' W 122°25'5 5.5
2017-Mar-04 02:34N 37°47' W 122°18'2 1.8
2017-Mar-04 01:34N 37°48' W 122°20'2 1.7
2017-Mar-04 00:34N 37°48' W 122°22'  

Dump ship's entire track history